sensor_id;sensor_type;location;lat;lon;timestamp;temperature;humidity
490;DHT22;231;48.120;11.576;2023-07-29T01:43:17;15.40;99.90
490;DHT22;231;48.120;11.576;2023-07-29T01:45:44;15.30;99.90
490;DHT22;231;48.120;11.576;2023-07-29T01:48:12;15.30;99.90
490;DHT22;231;48.120;11.576;2023-07-29T01:50:39;15.30;99.90
490;DHT22;231;48.120;11.576;2023-07-29T01:53:06;15.20;99.90
490;DHT22;231;48.120;11.576;2023-07-29T01:55:32;15.20;99.90
490;DHT22;231;48.120;11.576;2023-07-29T01:57:59;15.20;99.90
490;DHT22;231;48.120;11.576;2023-07-29T02:00:29;15.20;99.90
490;DHT22;231;48.120;11.576;2023-07-29T02:02:55;15.20;99.90
490;DHT22;231;48.120;11.576;2023-07-29T02:05:22;15.20;99.90
490;DHT22;231;48.120;11.576;2023-07-29T02:07:49;15.20;99.90
490;DHT22;231;48.120;11.576;2023-07-29T02:10:16;15.30;99.90
490;DHT22;231;48.120;11.576;2023-07-29T02:12:43;15.30;99.90
490;DHT22;231;48.120;11.576;2023-07-29T02:15:10;15.30;99.90
490;DHT22;231;48.120;11.576;2023-07-29T02:17:38;15.30;99.90
490;DHT22;231;48.120;11.576;2023-07-29T02:20:05;15.20;99.90
490;DHT22;231;48.120;11.576;2023-07-29T02:22:32;15.20;99.90
490;DHT22;231;48.120;11.576;2023-07-29T02:24:59;15.10;99.90
490;DHT22;231;48.120;11.576;2023-07-29T02:27:26;15.10;99.90
490;DHT22;231;48.120;11.576;2023-07-29T02:29:53;15.10;99.90
490;DHT22;231;48.120;11.576;2023-07-29T02:32:20;15.00;99.90
490;DHT22;231;48.120;11.576;2023-07-29T02:34:48;14.90;99.90
490;DHT22;231;48.120;11.576;2023-07-29T02:37:15;14.90;99.90
490;DHT22;231;48.120;11.576;2023-07-29T02:39:42;14.90;99.90
490;DHT22;231;48.120;11.576;2023-07-29T02:42:09;14.80;99.90
490;DHT22;231;48.120;11.576;2023-07-29T02:44:35;14.80;99.90
490;DHT22;231;48.120;11.576;2023-07-29T02:47:02;14.80;99.90
490;DHT22;231;48.120;11.576;2023-07-29T02:49:29;14.80;99.90
490;DHT22;231;48.120;11.576;2023-07-29T02:51:57;14.80;99.90
490;DHT22;231;48.120;11.576;2023-07-29T02:54:24;14.80;99.90
490;DHT22;231;48.120;11.576;2023-07-29T02:56:51;14.70;99.90
490;DHT22;231;48.120;11.576;2023-07-29T02:59:17;14.70;99.90
490;DHT22;231;48.120;11.576;2023-07-29T03:01:45;14.60;99.90
490;DHT22;231;48.120;11.576;2023-07-29T03:04:12;14.60;99.90
490;DHT22;231;48.120;11.576;2023-07-29T03:06:41;14.70;99.90
490;DHT22;231;48.120;11.576;2023-07-29T03:09:09;14.70;99.90
490;DHT22;231;48.120;11.576;2023-07-29T03:11:36;14.70;99.90
490;DHT22;231;48.120;11.576;2023-07-29T03:14:03;14.80;99.90
490;DHT22;231;48.120;11.576;2023-07-29T03:16:30;14.80;99.90
490;DHT22;231;48.120;11.576;2023-07-29T03:18:56;14.90;99.90
490;DHT22;231;48.120;11.576;2023-07-29T03:21:25;14.90;99.90
490;DHT22;231;48.120;11.576;2023-07-29T03:23:52;14.90;99.90
490;DHT22;231;48.120;11.576;2023-07-29T03:26:20;14.90;99.90
490;DHT22;231;48.120;11.576;2023-07-29T03:28:47;14.80;99.90
490;DHT22;231;48.120;11.576;2023-07-29T03:31:14;14.80;99.90
490;DHT22;231;48.120;11.576;2023-07-29T03:33:41;14.90;99.90
490;DHT22;231;48.120;11.576;2023-07-29T03:36:07;15.00;99.90
490;DHT22;231;48.120;11.576;2023-07-29T03:38:34;15.00;99.90
490;DHT22;231;48.120;11.576;2023-07-29T03:41:05;15.10;99.90
490;DHT22;231;48.120;11.576;2023-07-29T03:43:33;15.10;99.90
490;DHT22;231;48.120;11.576;2023-07-29T03:46:00;15.10;99.90
490;DHT22;231;48.120;11.576;2023-07-29T03:48:27;15.20;99.90
490;DHT22;231;48.120;11.576;2023-07-29T03:50:54;15.20;99.90
490;DHT22;231;48.120;11.576;2023-07-29T03:53:21;15.20;99.90
490;DHT22;231;48.120;11.576;2023-07-29T03:55:48;15.30;99.90
490;DHT22;231;48.120;11.576;2023-07-29T03:58:15;15.30;99.90
490;DHT22;231;48.120;11.576;2023-07-29T04:00:43;15.30;99.90
490;DHT22;231;48.120;11.576;2023-07-29T04:03:10;15.40;99.90
490;DHT22;231;48.120;11.576;2023-07-29T04:05:37;15.40;99.90
490;DHT22;231;48.120;11.576;2023-07-29T04:08:03;15.40;99.90
490;DHT22;231;48.120;11.576;2023-07-29T04:10:30;15.50;99.90
490;DHT22;231;48.120;11.576;2023-07-29T04:12:57;15.50;99.90
490;DHT22;231;48.120;11.576;2023-07-29T04:15:24;15.60;99.90
490;DHT22;231;48.120;11.576;2023-07-29T04:17:52;15.60;99.90
490;DHT22;231;48.120;11.576;2023-07-29T04:20:19;15.70;99.90
490;DHT22;231;48.120;11.576;2023-07-29T04:22:45;15.70;99.90
490;DHT22;231;48.120;11.576;2023-07-29T04:25:12;15.70;99.90
490;DHT22;231;48.120;11.576;2023-07-29T04:27:39;15.70;99.90
490;DHT22;231;48.120;11.576;2023-07-29T04:30:06;15.60;99.90
490;DHT22;231;48.120;11.576;2023-07-29T04:32:33;15.60;99.90
490;DHT22;231;48.120;11.576;2023-07-29T04:35:01;15.60;99.90
490;DHT22;231;48.120;11.576;2023-07-29T04:37:28;15.60;99.90
490;DHT22;231;48.120;11.576;2023-07-29T04:39:55;15.60;99.90
490;DHT22;231;48.120;11.576;2023-07-29T04:42:21;15.60;99.90
490;DHT22;231;48.120;11.576;2023-07-29T04:44:48;15.60;99.90
490;DHT22;231;48.120;11.576;2023-07-29T04:47:15;15.60;99.90
490;DHT22;231;48.120;11.576;2023-07-29T04:49:41;15.60;99.90
490;DHT22;231;48.120;11.576;2023-07-29T04:52:10;15.60;99.90
490;DHT22;231;48.120;11.576;2023-07-29T04:54:36;15.70;99.90
490;DHT22;231;48.120;11.576;2023-07-29T04:57:05;15.70;99.90
490;DHT22;231;48.120;11.576;2023-07-29T04:59:32;15.80;99.90
490;DHT22;231;48.120;11.576;2023-07-29T05:01:59;16.00;99.90
490;DHT22;231;48.120;11.576;2023-07-29T05:04:26;16.10;99.90
490;DHT22;231;48.120;11.576;2023-07-29T05:06:53;16.30;99.90
490;DHT22;231;48.120;11.576;2023-07-29T05:09:21;16.60;99.90
490;DHT22;231;48.120;11.576;2023-07-29T05:11:48;16.90;99.90
490;DHT22;231;48.120;11.576;2023-07-29T05:14:17;17.10;99.90
490;DHT22;231;48.120;11.576;2023-07-29T05:16:44;17.30;99.90
490;DHT22;231;48.120;11.576;2023-07-29T05:19:11;17.30;99.90
490;DHT22;231;48.120;11.576;2023-07-29T05:21:37;17.50;99.90
490;DHT22;231;48.120;11.576;2023-07-29T05:24:04;17.80;99.90
490;DHT22;231;48.120;11.576;2023-07-29T05:26:32;17.90;99.90
490;DHT22;231;48.120;11.576;2023-07-29T05:28:59;17.90;99.90
490;DHT22;231;48.120;11.576;2023-07-29T05:31:26;18.10;99.90
490;DHT22;231;48.120;11.576;2023-07-29T05:33:53;18.20;99.90
490;DHT22;231;48.120;11.576;2023-07-29T05:36:19;18.30;99.90
490;DHT22;231;48.120;11.576;2023-07-29T05:38:46;18.40;99.90
490;DHT22;231;48.120;11.576;2023-07-29T05:41:13;18.50;99.90
490;DHT22;231;48.120;11.576;2023-07-29T05:43:41;18.60;99.90
490;DHT22;231;48.120;11.576;2023-07-29T05:46:08;18.70;99.90
490;DHT22;231;48.120;11.576;2023-07-29T05:48:35;18.80;99.90
490;DHT22;231;48.120;11.576;2023-07-29T05:51:02;19.00;99.90
490;DHT22;231;48.120;11.576;2023-07-29T05:53:30;19.10;99.90
490;DHT22;231;48.120;11.576;2023-07-29T05:55:57;19.20;99.90
490;DHT22;231;48.120;11.576;2023-07-29T05:58:24;19.20;99.90
490;DHT22;231;48.120;11.576;2023-07-29T06:00:52;19.10;99.90
490;DHT22;231;48.120;11.576;2023-07-29T06:03:19;19.00;99.90
490;DHT22;231;48.120;11.576;2023-07-29T06:05:46;18.80;99.90
490;DHT22;231;48.120;11.576;2023-07-29T06:08:15;18.70;99.90
490;DHT22;231;48.120;11.576;2023-07-29T06:10:42;18.40;99.90
490;DHT22;231;48.120;11.576;2023-07-29T06:13:09;18.10;99.90
490;DHT22;231;48.120;11.576;2023-07-29T06:15:36;17.90;99.90
490;DHT22;231;48.120;11.576;2023-07-29T06:18:08;17.60;99.90
490;DHT22;231;48.120;11.576;2023-07-29T06:20:35;17.40;99.90
490;DHT22;231;48.120;11.576;2023-07-29T06:23:03;17.20;99.90
490;DHT22;231;48.120;11.576;2023-07-29T06:25:30;17.20;99.90
490;DHT22;231;48.120;11.576;2023-07-29T06:27:57;17.20;99.90
490;DHT22;231;48.120;11.576;2023-07-29T06:30:24;17.20;99.90
490;DHT22;231;48.120;11.576;2023-07-29T06:32:51;17.40;99.90
490;DHT22;231;48.120;11.576;2023-07-29T06:35:19;17.60;99.90
490;DHT22;231;48.120;11.576;2023-07-29T06:37:46;17.80;99.90
490;DHT22;231;48.120;11.576;2023-07-29T06:40:13;18.00;99.90
490;DHT22;231;48.120;11.576;2023-07-29T06:42:40;18.20;99.90
490;DHT22;231;48.120;11.576;2023-07-29T06:45:08;18.30;99.90
490;DHT22;231;48.120;11.576;2023-07-29T06:47:35;18.30;99.90
490;DHT22;231;48.120;11.576;2023-07-29T06:50:02;18.30;99.90
490;DHT22;231;48.120;11.576;2023-07-29T06:52:31;18.20;99.90
490;DHT22;231;48.120;11.576;2023-07-29T06:54:58;18.00;99.90
490;DHT22;231;48.120;11.576;2023-07-29T06:57:25;17.90;99.90
490;DHT22;231;48.120;11.576;2023-07-29T06:59:52;17.60;99.90
490;DHT22;231;48.120;11.576;2023-07-29T07:02:18;17.50;99.90
490;DHT22;231;48.120;11.576;2023-07-29T07:04:46;17.40;99.90
490;DHT22;231;48.120;11.576;2023-07-29T07:07:13;17.40;99.90
490;DHT22;231;48.120;11.576;2023-07-29T07:09:43;17.40;99.90
490;DHT22;231;48.120;11.576;2023-07-29T07:12:10;17.40;99.90
490;DHT22;231;48.120;11.576;2023-07-29T07:14:37;17.40;99.90
490;DHT22;231;48.120;11.576;2023-07-29T07:17:05;17.40;99.90
490;DHT22;231;48.120;11.576;2023-07-29T07:19:32;17.50;99.90
490;DHT22;231;48.120;11.576;2023-07-29T07:22:00;17.50;99.90
490;DHT22;231;48.120;11.576;2023-07-29T07:24:30;17.70;99.90
490;DHT22;231;48.120;11.576;2023-07-29T07:27:03;17.80;99.90
490;DHT22;231;48.120;11.576;2023-07-29T07:29:30;17.90;99.90
490;DHT22;231;48.120;11.576;2023-07-29T07:31:59;18.00;99.90
490;DHT22;231;48.120;11.576;2023-07-29T07:34:26;18.00;99.90
490;DHT22;231;48.120;11.576;2023-07-29T07:36:54;18.00;99.90
490;DHT22;231;48.120;11.576;2023-07-29T07:42:49;18.10;99.90
490;DHT22;231;48.120;11.576;2023-07-29T07:45:17;18.20;99.90
490;DHT22;231;48.120;11.576;2023-07-29T07:47:52;18.30;99.90
490;DHT22;231;48.120;11.576;2023-07-29T07:50:21;18.30;99.90
490;DHT22;231;48.120;11.576;2023-07-29T07:53:03;18.40;99.90
490;DHT22;231;48.120;11.576;2023-07-29T07:55:31;18.50;99.90
490;DHT22;231;48.120;11.576;2023-07-29T07:57:59;18.60;99.90
490;DHT22;231;48.120;11.576;2023-07-29T08:00:26;18.60;99.90
490;DHT22;231;48.120;11.576;2023-07-29T08:02:53;18.50;99.90
490;DHT22;231;48.120;11.576;2023-07-29T08:05:20;18.40;99.90
490;DHT22;231;48.120;11.576;2023-07-29T08:07:46;18.50;99.90
490;DHT22;231;48.120;11.576;2023-07-29T08:10:13;18.70;99.90
490;DHT22;231;48.120;11.576;2023-07-29T08:12:40;18.80;99.90
490;DHT22;231;48.120;11.576;2023-07-29T08:15:09;19.00;99.90
490;DHT22;231;48.120;11.576;2023-07-29T08:17:36;19.30;99.90
490;DHT22;231;48.120;11.576;2023-07-29T08:20:03;19.60;99.90
490;DHT22;231;48.120;11.576;2023-07-29T08:22:30;19.80;99.90
490;DHT22;231;48.120;11.576;2023-07-29T08:24:58;20.10;99.90
490;DHT22;231;48.120;11.576;2023-07-29T08:27:25;20.30;99.90
490;DHT22;231;48.120;11.576;2023-07-29T08:29:53;20.40;99.90
490;DHT22;231;48.120;11.576;2023-07-29T08:32:22;20.60;99.90
490;DHT22;231;48.120;11.576;2023-07-29T08:34:49;20.90;99.90
490;DHT22;231;48.120;11.576;2023-07-29T08:37:16;21.20;99.90
490;DHT22;231;48.120;11.576;2023-07-29T08:39:46;21.40;99.90
490;DHT22;231;48.120;11.576;2023-07-29T08:42:23;21.70;99.90
490;DHT22;231;48.120;11.576;2023-07-29T08:44:50;21.80;99.90
490;DHT22;231;48.120;11.576;2023-07-29T08:47:18;21.70;99.90
490;DHT22;231;48.120;11.576;2023-07-29T08:49:47;21.70;99.90
490;DHT22;231;48.120;11.576;2023-07-29T08:52:15;21.70;99.90
490;DHT22;231;48.120;11.576;2023-07-29T08:54:42;21.60;99.90
490;DHT22;231;48.120;11.576;2023-07-29T08:57:09;21.70;99.90
490;DHT22;231;48.120;11.576;2023-07-29T08:59:37;21.90;99.90
490;DHT22;231;48.120;11.576;2023-07-29T09:02:04;21.90;99.90
490;DHT22;231;48.120;11.576;2023-07-29T09:04:31;22.20;99.90
490;DHT22;231;48.120;11.576;2023-07-29T09:07:00;22.40;99.90
490;DHT22;231;48.120;11.576;2023-07-29T09:09:27;22.70;99.90
490;DHT22;231;48.120;11.576;2023-07-29T09:11:54;23.20;99.90
490;DHT22;231;48.120;11.576;2023-07-29T09:14:21;23.80;99.90
490;DHT22;231;48.120;11.576;2023-07-29T09:16:50;24.30;99.90
490;DHT22;231;48.120;11.576;2023-07-29T09:19:38;25.50;99.90
490;DHT22;231;48.120;11.576;2023-07-29T09:22:17;26.40;99.90
490;DHT22;231;48.120;11.576;2023-07-29T09:24:45;27.50;99.90
490;DHT22;231;48.120;11.576;2023-07-29T09:27:47;29.30;99.90
490;DHT22;231;48.120;11.576;2023-07-29T09:30:25;30.80;99.90
490;DHT22;231;48.120;11.576;2023-07-29T09:33:14;31.80;99.90
490;DHT22;231;48.120;11.576;2023-07-29T09:35:41;33.10;99.90
490;DHT22;231;48.120;11.576;2023-07-29T09:38:25;33.90;99.90
490;DHT22;231;48.120;11.576;2023-07-29T09:43:40;34.90;88.00
490;DHT22;231;48.120;11.576;2023-07-29T09:46:17;35.20;96.00
490;DHT22;231;48.120;11.576;2023-07-29T09:48:44;35.70;98.00
490;DHT22;231;48.120;11.576;2023-07-29T09:51:21;36.80;92.40
490;DHT22;231;48.120;11.576;2023-07-29T09:58:09;37.60;28.10
490;DHT22;231;48.120;11.576;2023-07-29T10:00:53;37.10;52.50
490;DHT22;231;48.120;11.576;2023-07-29T10:03:22;37.80;42.00
490;DHT22;231;48.120;11.576;2023-07-29T10:06:14;38.50;15.90
490;DHT22;231;48.120;11.576;2023-07-29T10:08:44;40.10;1.00
490;DHT22;231;48.120;11.576;2023-07-29T10:11:12;40.30;1.00
490;DHT22;231;48.120;11.576;2023-07-29T10:13:40;40.30;1.00
490;DHT22;231;48.120;11.576;2023-07-29T10:16:07;40.10;1.00
490;DHT22;231;48.120;11.576;2023-07-29T10:18:38;40.10;1.00
490;DHT22;231;48.120;11.576;2023-07-29T10:21:10;40.80;1.00
490;DHT22;231;48.120;11.576;2023-07-29T10:27:02;41.50;1.00
490;DHT22;231;48.120;11.576;2023-07-29T10:29:31;42.70;1.00
490;DHT22;231;48.120;11.576;2023-07-29T10:32:05;44.10;1.00
490;DHT22;231;48.120;11.576;2023-07-29T10:34:40;45.10;1.00
490;DHT22;231;48.120;11.576;2023-07-29T10:37:10;46.10;1.00
490;DHT22;231;48.120;11.576;2023-07-29T10:39:38;46.70;1.00
490;DHT22;231;48.120;11.576;2023-07-29T10:42:06;47.10;1.00
490;DHT22;231;48.120;11.576;2023-07-29T10:45:16;47.20;1.00
490;DHT22;231;48.120;11.576;2023-07-29T10:48:06;47.50;1.00
490;DHT22;231;48.120;11.576;2023-07-29T10:50:49;46.80;1.00
490;DHT22;231;48.120;11.576;2023-07-29T10:53:30;46.80;1.00
490;DHT22;231;48.120;11.576;2023-07-29T10:55:57;46.80;1.00
490;DHT22;231;48.120;11.576;2023-07-29T10:58:24;45.70;1.00
490;DHT22;231;48.120;11.576;2023-07-29T11:00:52;44.20;1.00
490;DHT22;231;48.120;11.576;2023-07-29T11:03:20;42.40;1.00
490;DHT22;231;48.120;11.576;2023-07-29T11:05:50;42.20;1.00
490;DHT22;231;48.120;11.576;2023-07-29T11:08:24;43.10;1.00
490;DHT22;231;48.120;11.576;2023-07-29T11:11:02;44.10;1.00
490;DHT22;231;48.120;11.576;2023-07-29T11:13:31;45.00;1.00
490;DHT22;231;48.120;11.576;2023-07-29T11:15:59;44.50;1.00
490;DHT22;231;48.120;11.576;2023-07-29T11:18:28;43.60;1.00
490;DHT22;231;48.120;11.576;2023-07-29T11:20:56;43.60;1.00
490;DHT22;231;48.120;11.576;2023-07-29T11:23:28;43.60;1.00
490;DHT22;231;48.120;11.576;2023-07-29T11:25:56;42.80;1.00
490;DHT22;231;48.120;11.576;2023-07-29T11:28:23;41.40;1.00
490;DHT22;231;48.120;11.576;2023-07-29T11:30:51;39.60;1.00
490;DHT22;231;48.120;11.576;2023-07-29T11:33:19;38.10;1.00
490;DHT22;231;48.120;11.576;2023-07-29T11:35:47;37.20;1.00
490;DHT22;231;48.120;11.576;2023-07-29T11:38:15;37.50;1.00
490;DHT22;231;48.120;11.576;2023-07-29T11:40:43;38.80;1.00
490;DHT22;231;48.120;11.576;2023-07-29T11:43:17;40.00;1.00
490;DHT22;231;48.120;11.576;2023-07-29T11:45:45;41.50;1.00
490;DHT22;231;48.120;11.576;2023-07-29T11:48:12;42.40;1.00
490;DHT22;231;48.120;11.576;2023-07-29T11:50:40;43.20;1.00
490;DHT22;231;48.120;11.576;2023-07-29T11:53:07;43.90;1.00
490;DHT22;231;48.120;11.576;2023-07-29T11:55:34;44.60;1.00
490;DHT22;231;48.120;11.576;2023-07-29T11:58:01;45.10;1.00
490;DHT22;231;48.120;11.576;2023-07-29T12:00:28;45.60;1.00
490;DHT22;231;48.120;11.576;2023-07-29T12:02:55;46.00;1.00
490;DHT22;231;48.120;11.576;2023-07-29T12:05:23;46.40;1.00
490;DHT22;231;48.120;11.576;2023-07-29T12:10:18;47.30;1.00
490;DHT22;231;48.120;11.576;2023-07-29T12:12:48;47.80;1.00
490;DHT22;231;48.120;11.576;2023-07-29T12:15:23;48.30;1.00
490;DHT22;231;48.120;11.576;2023-07-29T12:17:53;48.70;1.00
490;DHT22;231;48.120;11.576;2023-07-29T12:20:21;48.80;1.00
490;DHT22;231;48.120;11.576;2023-07-29T12:22:53;48.70;1.00
490;DHT22;231;48.120;11.576;2023-07-29T12:25:20;48.10;1.00
490;DHT22;231;48.120;11.576;2023-07-29T12:27:47;47.70;1.00
490;DHT22;231;48.120;11.576;2023-07-29T12:30:14;47.60;1.00
490;DHT22;231;48.120;11.576;2023-07-29T12:32:45;47.80;1.00
490;DHT22;231;48.120;11.576;2023-07-29T12:35:12;48.20;1.00
490;DHT22;231;48.120;11.576;2023-07-29T12:37:40;48.30;1.00
490;DHT22;231;48.120;11.576;2023-07-29T12:40:23;47.50;1.00
490;DHT22;231;48.120;11.576;2023-07-29T12:42:50;45.70;1.00
490;DHT22;231;48.120;11.576;2023-07-29T12:45:18;43.70;1.00
490;DHT22;231;48.120;11.576;2023-07-29T12:47:47;41.90;1.00
490;DHT22;231;48.120;11.576;2023-07-29T12:50:14;40.20;1.00
490;DHT22;231;48.120;11.576;2023-07-29T12:52:40;39.00;1.00
490;DHT22;231;48.120;11.576;2023-07-29T12:55:09;37.70;1.00
490;DHT22;231;48.120;11.576;2023-07-29T12:57:39;36.50;1.00
490;DHT22;231;48.120;11.576;2023-07-29T13:00:07;35.00;1.00
490;DHT22;231;48.120;11.576;2023-07-29T13:02:35;33.20;1.00
490;DHT22;231;48.120;11.576;2023-07-29T13:05:02;31.50;1.00
490;DHT22;231;48.120;11.576;2023-07-29T13:07:29;30.40;1.00
490;DHT22;231;48.120;11.576;2023-07-29T13:09:56;29.40;1.00
490;DHT22;231;48.120;11.576;2023-07-29T13:12:24;28.70;4.10
490;DHT22;231;48.120;11.576;2023-07-29T13:14:51;28.00;14.00
490;DHT22;231;48.120;11.576;2023-07-29T13:17:18;26.80;19.90
490;DHT22;231;48.120;11.576;2023-07-29T13:19:45;25.60;23.60
490;DHT22;231;48.120;11.576;2023-07-29T13:25:53;22.90;45.40
490;DHT22;231;48.120;11.576;2023-07-29T13:28:24;21.60;94.80
490;DHT22;231;48.120;11.576;2023-07-29T13:30:54;21.40;99.90
490;DHT22;231;48.120;11.576;2023-07-29T13:33:21;21.50;99.90
490;DHT22;231;48.120;11.576;2023-07-29T13:35:48;21.70;99.90
490;DHT22;231;48.120;11.576;2023-07-29T13:38:16;21.80;99.90
490;DHT22;231;48.120;11.576;2023-07-29T13:40:42;21.90;99.90
490;DHT22;231;48.120;11.576;2023-07-29T13:43:09;22.00;99.90
490;DHT22;231;48.120;11.576;2023-07-29T13:45:38;21.90;99.90
490;DHT22;231;48.120;11.576;2023-07-29T13:48:05;21.80;99.90
490;DHT22;231;48.120;11.576;2023-07-29T13:50:31;21.80;99.90
490;DHT22;231;48.120;11.576;2023-07-29T13:52:58;21.80;99.90
490;DHT22;231;48.120;11.576;2023-07-29T13:55:25;21.80;99.90
490;DHT22;231;48.120;11.576;2023-07-29T13:57:52;21.70;99.90
490;DHT22;231;48.120;11.576;2023-07-29T14:00:20;21.70;99.90
490;DHT22;231;48.120;11.576;2023-07-29T14:02:48;21.70;99.90
490;DHT22;231;48.120;11.576;2023-07-29T14:05:15;21.70;99.90
490;DHT22;231;48.120;11.576;2023-07-29T14:07:42;21.70;99.90
490;DHT22;231;48.120;11.576;2023-07-29T14:10:09;21.40;99.90
490;DHT22;231;48.120;11.576;2023-07-29T14:12:36;21.20;99.90
490;DHT22;231;48.120;11.576;2023-07-29T14:15:04;21.10;99.90
490;DHT22;231;48.120;11.576;2023-07-29T14:17:31;21.10;99.90
490;DHT22;231;48.120;11.576;2023-07-29T14:20:00;21.00;99.90
490;DHT22;231;48.120;11.576;2023-07-29T14:22:27;21.00;99.90
490;DHT22;231;48.120;11.576;2023-07-29T14:24:54;21.10;99.90
490;DHT22;231;48.120;11.576;2023-07-29T14:27:21;21.00;99.90
490;DHT22;231;48.120;11.576;2023-07-29T14:29:48;21.00;99.90
490;DHT22;231;48.120;11.576;2023-07-29T14:32:14;21.10;99.90
490;DHT22;231;48.120;11.576;2023-07-29T14:34:41;21.10;99.90
490;DHT22;231;48.120;11.576;2023-07-29T14:37:13;21.00;99.90
490;DHT22;231;48.120;11.576;2023-07-29T14:39:42;20.80;99.90
490;DHT22;231;48.120;11.576;2023-07-29T14:42:09;20.60;99.90
490;DHT22;231;48.120;11.576;2023-07-29T14:44:36;20.50;99.90
490;DHT22;231;48.120;11.576;2023-07-29T14:47:04;20.40;99.90
490;DHT22;231;48.120;11.576;2023-07-29T14:49:33;20.30;99.90
490;DHT22;231;48.120;11.576;2023-07-29T14:52:03;20.20;99.90
490;DHT22;231;48.120;11.576;2023-07-29T14:54:37;20.10;99.90
490;DHT22;231;48.120;11.576;2023-07-29T14:57:06;19.90;99.90
490;DHT22;231;48.120;11.576;2023-07-29T14:59:36;19.90;99.90
490;DHT22;231;48.120;11.576;2023-07-29T15:02:04;19.80;99.90
490;DHT22;231;48.120;11.576;2023-07-29T15:04:31;19.90;99.90
490;DHT22;231;48.120;11.576;2023-07-29T15:09:51;19.90;99.90
490;DHT22;231;48.120;11.576;2023-07-29T15:12:21;19.80;99.90
490;DHT22;231;48.120;11.576;2023-07-29T15:14:48;19.80;99.90
490;DHT22;231;48.120;11.576;2023-07-29T15:17:15;19.90;99.90
490;DHT22;231;48.120;11.576;2023-07-29T15:19:42;19.90;99.90
490;DHT22;231;48.120;11.576;2023-07-29T15:22:08;20.00;99.90
490;DHT22;231;48.120;11.576;2023-07-29T15:24:35;20.10;99.90
490;DHT22;231;48.120;11.576;2023-07-29T15:27:06;20.30;99.90
490;DHT22;231;48.120;11.576;2023-07-29T15:29:33;20.50;99.90
490;DHT22;231;48.120;11.576;2023-07-29T15:31:59;20.60;99.90
490;DHT22;231;48.120;11.576;2023-07-29T15:34:26;20.80;99.90
490;DHT22;231;48.120;11.576;2023-07-29T15:36:57;20.90;99.90
490;DHT22;231;48.120;11.576;2023-07-29T15:39:24;21.00;99.90
490;DHT22;231;48.120;11.576;2023-07-29T15:41:51;21.10;99.90
490;DHT22;231;48.120;11.576;2023-07-29T15:44:20;21.20;99.90
490;DHT22;231;48.120;11.576;2023-07-29T15:46:48;21.30;99.90
490;DHT22;231;48.120;11.576;2023-07-29T15:49:17;21.20;99.90
490;DHT22;231;48.120;11.576;2023-07-29T15:51:44;21.20;99.90
490;DHT22;231;48.120;11.576;2023-07-29T15:54:11;21.30;99.90
490;DHT22;231;48.120;11.576;2023-07-29T15:56:38;21.30;99.90
490;DHT22;231;48.120;11.576;2023-07-29T15:59:06;21.30;99.90
490;DHT22;231;48.120;11.576;2023-07-29T16:01:34;21.40;99.90
490;DHT22;231;48.120;11.576;2023-07-29T16:04:02;21.50;99.90
490;DHT22;231;48.120;11.576;2023-07-29T16:06:29;21.60;99.90
490;DHT22;231;48.120;11.576;2023-07-29T16:08:56;21.70;99.90
490;DHT22;231;48.120;11.576;2023-07-29T16:11:27;21.90;99.90
490;DHT22;231;48.120;11.576;2023-07-29T16:13:54;21.90;99.90
490;DHT22;231;48.120;11.576;2023-07-29T16:16:21;22.00;99.90
490;DHT22;231;48.120;11.576;2023-07-29T16:18:50;22.10;99.90
490;DHT22;231;48.120;11.576;2023-07-29T16:21:16;22.20;99.90
490;DHT22;231;48.120;11.576;2023-07-29T16:23:43;22.30;99.90
490;DHT22;231;48.120;11.576;2023-07-29T16:26:10;22.40;99.90
490;DHT22;231;48.120;11.576;2023-07-29T16:28:38;22.20;99.90
490;DHT22;231;48.120;11.576;2023-07-29T16:31:07;22.10;99.90
490;DHT22;231;48.120;11.576;2023-07-29T16:33:33;22.00;99.90
490;DHT22;231;48.120;11.576;2023-07-29T16:36:02;21.90;99.90
490;DHT22;231;48.120;11.576;2023-07-29T16:38:29;21.90;99.90
490;DHT22;231;48.120;11.576;2023-07-29T16:40:55;21.90;99.90
490;DHT22;231;48.120;11.576;2023-07-29T16:43:22;21.80;99.90
490;DHT22;231;48.120;11.576;2023-07-29T16:45:49;21.90;99.90
490;DHT22;231;48.120;11.576;2023-07-29T16:48:16;21.80;99.90
490;DHT22;231;48.120;11.576;2023-07-29T16:50:45;21.90;99.90
490;DHT22;231;48.120;11.576;2023-07-29T16:53:14;21.80;99.90
490;DHT22;231;48.120;11.576;2023-07-29T16:55:41;21.70;99.90
490;DHT22;231;48.120;11.576;2023-07-29T16:58:08;21.60;99.90
490;DHT22;231;48.120;11.576;2023-07-29T17:00:35;21.30;99.90
490;DHT22;231;48.120;11.576;2023-07-29T17:03:02;21.20;99.90
490;DHT22;231;48.120;11.576;2023-07-29T17:05:29;21.10;99.90
490;DHT22;231;48.120;11.576;2023-07-29T17:07:56;20.90;99.90
490;DHT22;231;48.120;11.576;2023-07-29T17:10:24;20.80;99.90
490;DHT22;231;48.120;11.576;2023-07-29T17:12:51;20.70;99.90
490;DHT22;231;48.120;11.576;2023-07-29T17:15:18;20.60;99.90
490;DHT22;231;48.120;11.576;2023-07-29T17:17:45;20.50;99.90
490;DHT22;231;48.120;11.576;2023-07-29T17:20:12;20.40;99.90
490;DHT22;231;48.120;11.576;2023-07-29T17:22:39;20.30;99.90
490;DHT22;231;48.120;11.576;2023-07-29T17:25:07;20.20;99.90
490;DHT22;231;48.120;11.576;2023-07-29T17:27:35;20.20;99.90
490;DHT22;231;48.120;11.576;2023-07-29T17:30:03;20.10;99.90
490;DHT22;231;48.120;11.576;2023-07-29T17:32:30;20.10;99.90
490;DHT22;231;48.120;11.576;2023-07-29T17:34:57;20.00;99.90
490;DHT22;231;48.120;11.576;2023-07-29T17:37:24;20.00;99.90
490;DHT22;231;48.120;11.576;2023-07-29T17:39:53;19.90;99.90
490;DHT22;231;48.120;11.576;2023-07-29T17:42:20;19.90;99.90
490;DHT22;231;48.120;11.576;2023-07-29T17:44:49;19.90;99.90
490;DHT22;231;48.120;11.576;2023-07-29T17:47:16;19.80;99.90
490;DHT22;231;48.120;11.576;2023-07-29T17:49:44;19.80;99.90
490;DHT22;231;48.120;11.576;2023-07-29T17:52:11;19.80;99.90
490;DHT22;231;48.120;11.576;2023-07-29T17:54:38;19.80;99.90
490;DHT22;231;48.120;11.576;2023-07-29T17:57:06;19.70;99.90
490;DHT22;231;48.120;11.576;2023-07-29T17:59:33;19.70;99.90
490;DHT22;231;48.120;11.576;2023-07-29T18:02:02;19.60;99.90
490;DHT22;231;48.120;11.576;2023-07-29T18:04:29;19.60;99.90
490;DHT22;231;48.120;11.576;2023-07-29T18:06:56;19.50;99.90
490;DHT22;231;48.120;11.576;2023-07-29T18:09:23;19.40;99.90
490;DHT22;231;48.120;11.576;2023-07-29T18:11:50;19.40;99.90
490;DHT22;231;48.120;11.576;2023-07-29T18:14:18;19.30;99.90
490;DHT22;231;48.120;11.576;2023-07-29T18:16:45;19.30;99.90
490;DHT22;231;48.120;11.576;2023-07-29T18:19:16;19.30;99.90
490;DHT22;231;48.120;11.576;2023-07-29T18:21:46;19.20;99.90
490;DHT22;231;48.120;11.576;2023-07-29T18:24:15;19.20;99.90
490;DHT22;231;48.120;11.576;2023-07-29T18:26:43;19.20;99.90
490;DHT22;231;48.120;11.576;2023-07-29T18:29:11;19.20;99.90
490;DHT22;231;48.120;11.576;2023-07-29T18:31:40;19.10;99.90
490;DHT22;231;48.120;11.576;2023-07-29T18:34:07;19.10;99.90